Fort Dearborn, Illinois
Current Conditions -  °F | °C
As of 10:53 PM on Saturday 22 Nov 2014 (Local Time) from KMDW Reporting Station
Overcast Overcast  
Wind Chill: 12°   Ceiling: 1900
Heat Index: 12°   Visibility: 8mi
Dew Point:   Wind: 13mph
Humidity: 80%   Direction: 210°SSW
Pressure: 29.85"   Gusts: NA
Location:  41.8946°N, 87.6187°W
Report Text: KMDW 230453Z 21011KT 8SM OVC019 12/08 A2985 RMK AO2 SLP112 T01170083
Loading
Personal Weather Stations






























Interactive Weather Map New forecast layout! Learn more

10-Day Weather Forecast

Advertisements
Track Severe Weather on mobile